Time;durP1;ratioP1;P1;durP2;ratioP2;P2;SDS_P1;SDS_P2;PMS_P1;PMS_P2;Temp;Humidity;BMP_temperature;BMP_pressure;BME280_temperature;BME280_humidity;BME280_pressure;Samples;Min_cycle;Max_cycle;Signal;HPM_P1;HPM_P2
2021/06/25 00:00:11;;;;;;;;;21.25;21.25;;;;;18.78;59.39;101461.56;4912300;28;46104;-83
2021/06/25 00:02:38;;;;;;;;;19.75;18.50;;;;;18.72;59.43;101455.00;4901041;28;46504;-83
2021/06/25 00:05:07;;;;;;;;;21.50;21.00;;;;;18.53;59.13;101425.75;4914269;28;46502;-82
2021/06/25 00:07:33;;;;;;;;;21.75;20.00;;;;;18.68;59.55;101458.06;4913084;28;45787;-83
2021/06/25 00:10:03;;;;;;;;;20.00;19.75;;;;;18.65;59.13;101453.03;4907299;28;45848;-82
2021/06/25 00:12:29;;;;;;;;;18.25;16.75;;;;;18.53;59.79;101435.53;4905389;28;45776;-83
2021/06/25 00:14:54;;;;;;;;;19.00;19.00;;;;;18.60;59.95;101442.84;4916149;28;46142;-81
2021/06/25 00:17:20;;;;;;;;;22.75;20.00;;;;;18.51;59.92;101435.69;4909637;28;45828;-83
2021/06/25 00:19:45;;;;;;;;;24.00;21.25;;;;;18.61;59.88;101452.50;4911721;28;45737;-81
2021/06/25 00:22:11;;;;;;;;;23.75;21.75;;;;;18.55;60.27;101442.44;4917105;28;46792;-81
2021/06/25 00:24:37;;;;;;;;;21.75;21.00;;;;;18.40;59.76;101414.59;4918184;28;46118;-82
2021/06/25 00:27:02;;;;;;;;;21.25;20.75;;;;;18.48;60.28;101432.47;4917166;28;45702;-82
2021/06/25 00:29:28;;;;;;;;;24.25;22.00;;;;;18.55;60.48;101442.44;4908180;28;45689;-83
2021/06/25 00:31:53;;;;;;;;;19.00;19.00;;;;;18.53;60.48;101441.69;4914270;28;45600;-82
2021/06/25 00:34:18;;;;;;;;;22.75;22.25;;;;;18.51;59.99;101445.47;4900924;29;45708;-82
2021/06/25 00:36:44;;;;;;;;;21.75;21.00;;;;;18.27;60.49;101408.72;4903488;28;45724;-83
2021/06/25 00:39:10;;;;;;;;;19.50;18.25;;;;;18.45;60.67;101439.75;4894709;29;45969;-82
2021/06/25 00:41:35;;;;;;;;;21.25;20.00;;;;;18.40;60.60;101430.53;4912817;28;46277;-83
2021/06/25 00:44:00;;;;;;;;;20.25;20.00;;;;;18.44;60.81;101434.56;4916463;28;46747;-83
2021/06/25 00:46:28;;;;;;;;;22.25;19.50;;;;;18.42;60.18;101425.91;4906696;28;45800;-81
2021/06/25 00:48:53;;;;;;;;;20.75;20.00;;;;;18.39;60.86;101424.38;4916914;28;45630;-83
2021/06/25 00:51:19;;;;;;;;;21.00;20.00;;;;;18.31;60.65;101413.59;4914661;28;46645;-83
2021/06/25 00:53:44;;;;;;;;;24.00;23.00;;;;;18.33;60.59;101416.13;4904977;28;46442;-83
2021/06/25 00:56:12;;;;;;;;;20.50;20.25;;;;;18.27;60.95;101412.22;4901283;28;45642;-83
2021/06/25 00:58:38;;;;;;;;;22.75;22.00;;;;;18.35;60.54;101428.25;4915221;28;45616;-82
2021/06/25 01:01:03;;;;;;;;;22.25;21.50;;;;;18.31;60.82;101421.56;4909530;28;46240;-82
2021/06/25 01:03:29;;;;;;;;;22.25;21.50;;;;;18.26;60.71;101415.00;4896574;29;45761;-81
2021/06/25 01:05:54;;;;;;;;;18.75;17.75;;;;;18.19;61.13;101408.59;4907100;28;45865;-81
2021/06/25 01:08:22;;;;;;;;;23.50;21.25;;;;;18.15;60.70;101409.81;4902607;28;45942;-80
2021/06/25 01:10:48;;;;;;;;;26.50;23.00;;;;;18.11;60.77;101403.13;4913699;28;46743;-82
2021/06/25 01:13:13;;;;;;;;;21.75;20.50;;;;;17.72;60.97;101352.69;4905676;28;45797;-81
2021/06/25 01:15:38;;;;;;;;;25.50;21.75;;;;;17.95;61.15;101399.22;4913846;28;45789;-84
2021/06/25 01:18:04;;;;;;;;;20.75;19.75;;;;;17.89;61.39;101391.78;4916152;28;45568;-83
2021/06/25 01:20:34;;;;;;;;;21.25;20.50;;;;;17.89;61.06;101407.69;4906398;28;46227;-83
2021/06/25 01:22:59;;;;;;;;;24.75;22.25;;;;;17.78;61.32;101386.59;4916378;28;46153;-83
2021/06/25 01:25:31;;;;;;;;;25.00;22.50;;;;;17.77;61.77;101386.75;4916087;28;45730;-83
2021/06/25 01:28:00;;;;;;;;;22.00;20.00;;;;;17.76;61.15;101387.75;4916487;28;45621;-83
2021/06/25 01:30:29;;;;;;;;;22.00;21.00;;;;;17.40;61.79;101321.06;4898006;28;46716;-83
2021/06/25 01:33:08;;;;;;;;;28.50;24.25;;;;;17.58;61.55;101353.06;4909953;28;46135;-84
2021/06/25 01:35:35;;;;;;;;;23.00;22.00;;;;;17.66;61.69;101369.13;4864497;29;45971;-83
2021/06/25 01:38:00;;;;;;;;;22.50;21.00;;;;;17.70;61.50;101375.88;4875497;29;45785;-83
2021/06/25 01:40:26;;;;;;;;;21.00;19.00;;;;;17.73;61.44;101383.53;4875212;29;45678;-82
2021/06/25 01:42:52;;;;;;;;;21.25;20.50;;;;;17.71;61.29;101389.94;4875815;29;46448;-79
2021/06/25 01:45:29;;;;;;;;;22.25;20.75;;;;;17.72;61.90;101391.59;4875839;29;45767;-83
2021/06/25 01:47:54;;;;;;;;;26.00;21.25;;;;;17.65;62.02;101383.38;4875562;29;45694;-83
2021/06/25 01:50:24;;;;;;;;;22.75;21.25;;;;;17.51;62.23;101373.09;4874026;29;46297;-80
2021/06/25 01:52:52;;;;;;;;;23.25;22.50;;;;;17.51;62.17;101375.75;4875179;29;46080;-81
2021/06/25 01:55:18;;;;;;;;;23.00;22.50;;;;;17.11;61.80;101320.97;4875871;29;45717;-83
2021/06/25 01:57:44;;;;;;;;;26.50;22.50;;;;;17.29;61.76;101352.97;4875199;29;45849;-81
2021/06/25 02:00:11;;;;;;;;;25.00;23.75;;;;;17.18;61.86;101339.81;4888614;28;46839;-81
2021/06/25 02:02:38;;;;;;;;;22.25;21.00;;;;;17.34;62.03;101365.78;4898427;28;47702;-81
2021/06/25 02:05:04;;;;;;;;;22.25;19.50;;;;;17.19;62.48;101330.91;4895142;29;45818;-82
2021/06/25 02:07:29;;;;;;;;;21.25;20.00;;;;;17.41;62.54;101361.66;4897813;28;45955;-81
2021/06/25 02:09:56;;;;;;;;;22.50;21.50;;;;;17.45;62.13;101363.88;4896026;29;45639;-81
2021/06/25 02:12:22;;;;;;;;;22.25;21.50;;;;;17.45;62.60;101355.94;4896947;28;46076;-81
2021/06/25 02:14:47;;;;;;;;;24.00;23.00;;;;;17.40;62.03;101339.63;4896299;29;45652;-80
2021/06/25 02:17:12;;;;;;;;;74.00;60.00;;;;;17.24;62.20;101312.81;4896340;28;45840;-84
2021/06/25 02:19:38;;;;;;;;;38.25;34.00;;;;;17.41;62.29;101340.47;4896477;28;45621;-83
2021/06/25 02:22:04;;;;;;;;;21.50;17.00;;;;;17.46;62.29;101349.69;4896165;28;46139;-82
2021/06/25 02:24:32;;;;;;;;;23.75;22.00;;;;;17.37;62.41;101325.81;4896378;28;46210;-80
2021/06/25 02:26:57;;;;;;;;;20.00;19.00;;;;;17.55;62.65;101345.38;4895936;28;45853;-81
2021/06/25 02:29:23;;;;;;;;;25.00;22.00;;;;;17.49;62.57;101330.03;4896144;29;46691;-82
2021/06/25 02:31:48;;;;;;;;;27.25;24.50;;;;;17.58;62.68;101345.94;4896527;29;45899;-80
2021/06/25 02:34:39;;;;;;;;;23.25;21.25;;;;;17.59;62.71;101350.31;4897715;29;45662;-81
2021/06/25 02:37:05;;;;;;;;;23.00;22.00;;;;;17.32;62.84;101299.72;4839884;29;45843;-83
2021/06/25 02:39:33;;;;;;;;;23.00;22.00;;;;;17.47;62.31;101324.88;4843392;29;47511;-84
2021/06/25 02:41:59;;;;;;;;;24.25;21.25;;;;;17.47;62.37;101316.06;4852323;29;46158;-84
2021/06/25 02:44:24;;;;;;;;;23.50;22.00;;;;;17.49;62.76;101314.13;4851012;29;46017;-82
2021/06/25 02:46:50;;;;;;;;;25.00;24.25;;;;;17.59;62.63;101323.81;4851678;29;45843;-81
2021/06/25 02:49:16;;;;;;;;;34.50;31.25;;;;;17.61;62.95;101324.50;4840283;29;45752;-82
2021/06/25 02:51:43;;;;;;;;;35.75;30.50;;;;;17.66;62.39;101333.84;4848291;29;46148;-82
2021/06/25 02:54:08;;;;;;;;;24.50;23.25;;;;;17.54;62.40;101301.31;4836766;29;45590;-82
2021/06/25 02:56:34;;;;;;;;;26.25;24.50;;;;;17.68;62.87;101326.59;4841627;29;46037;-80
2021/06/25 02:58:59;;;;;;;;;24.50;24.00;;;;;17.68;62.47;101327.44;4848135;29;46122;-82
2021/06/25 03:01:24;;;;;;;;;33.50;27.75;;;;;17.66;62.83;101325.88;4839043;29;45853;-82
2021/06/25 03:03:50;;;;;;;;;22.25;20.50;;;;;17.56;62.82;101310.78;4837629;29;46243;-82
2021/06/25 03:06:15;;;;;;;;;25.25;23.75;;;;;17.53;62.38;101304.94;4848128;29;46194;-81
2021/06/25 03:08:41;;;;;;;;;25.50;22.75;;;;;17.60;62.58;101309.56;4841974;29;48642;-83
2021/06/25 03:11:06;;;;;;;;;41.00;33.50;;;;;17.61;62.58;101313.06;4836025;29;46062;-82
2021/06/25 03:13:31;;;;;;;;;52.00;42.25;;;;;17.60;62.45;101303.41;4847291;29;46273;-83
2021/06/25 03:15:57;;;;;;;;;57.25;46.75;;;;;17.68;62.47;101322.16;4894512;29;45738;-83
2021/06/25 03:18:22;;;;;;;;;42.75;34.00;;;;;17.54;62.91;101288.88;4894596;28;46602;-79
2021/06/25 03:20:48;;;;;;;;;41.00;35.00;;;;;17.65;62.54;101309.19;4894672;28;46357;-81
2021/06/25 03:23:13;;;;;;;;;32.00;29.75;;;;;17.70;63.05;101316.72;4895062;28;45602;-82
2021/06/25 03:25:39;;;;;;;;;28.25;27.25;;;;;17.69;62.45;101307.91;4912846;28;45681;-81
2021/06/25 03:28:05;;;;;;;;;31.75;28.50;;;;;17.76;62.57;101319.63;4912951;28;46102;-83
2021/06/25 03:30:31;;;;;;;;;34.50;30.25;;;;;17.77;62.63;101316.00;4901222;28;45826;-82
2021/06/25 03:32:57;;;;;;;;;44.00;37.00;;;;;17.78;62.58;101319.50;4912567;28;45921;-82
2021/06/25 03:35:22;;;;;;;;;49.25;40.75;;;;;17.78;62.67;101324.81;4908297;28;45594;-83
2021/06/25 03:37:48;;;;;;;;;45.75;38.50;;;;;17.78;62.83;101327.44;4894619;29;46592;-82
2021/06/25 03:40:14;;;;;;;;;46.25;37.00;;;;;17.77;62.87;101336.38;4890266;28;47242;-83
2021/06/25 03:42:41;;;;;;;;;40.50;34.50;;;;;17.57;62.87;101291.28;4889107;29;46168;-81
2021/06/25 03:45:09;;;;;;;;;41.50;36.00;;;;;17.73;62.80;101325.22;4895246;29;45726;-81
2021/06/25 03:47:35;;;;;;;;;42.00;35.00;;;;;17.77;62.76;101337.22;4906952;28;46571;-83
2021/06/25 03:50:01;;;;;;;;;35.50;33.00;;;;;17.66;62.72;101313.47;4912055;28;46279;-84
2021/06/25 03:52:26;;;;;;;;;39.50;34.00;;;;;17.77;62.77;101326.59;4907424;28;45838;-83
2021/06/25 03:54:52;;;;;;;;;36.00;32.25;;;;;17.78;63.17;101323.00;4902396;28;46146;-82
2021/06/25 03:57:17;;;;;;;;;58.00;46.25;;;;;17.78;62.75;101323.00;4912897;28;46410;-83
2021/06/25 03:59:43;;;;;;;;;47.75;38.75;;;;;17.75;62.83;101311.84;4913339;28;45611;-82
2021/06/25 04:02:11;;;;;;;;;51.00;41.50;;;;;17.76;62.94;101318.81;4912703;28;45861;-84
2021/06/25 04:04:37;;;;;;;;;45.00;38.25;;;;;17.79;62.78;101319.38;4901978;28;46035;-83
2021/06/25 04:07:04;;;;;;;;;35.00;31.75;;;;;17.65;63.20;101285.31;4904702;28;46862;-82
2021/06/25 04:09:30;;;;;;;;;41.50;34.75;;;;;17.71;62.71;101299.81;4898249;28;47110;-81
2021/06/25 04:11:56;;;;;;;;;37.50;33.00;;;;;17.79;62.90;101310.56;4907811;28;45712;-82
2021/06/25 04:14:21;;;;;;;;;34.25;32.25;;;;;17.82;62.96;101316.44;4888496;28;45759;-83
2021/06/25 04:16:47;;;;;;;;;39.50;30.75;;;;;17.82;62.53;101315.59;4903345;28;46416;-82
2021/06/25 04:19:12;;;;;;;;;38.25;32.75;;;;;17.83;63.10;101314.63;4898034;29;46472;-81
2021/06/25 04:21:38;;;;;;;;;37.25;33.00;;;;;17.84;63.17;101313.66;4884958;29;45524;-82
2021/06/25 04:24:04;;;;;;;;;29.00;28.00;;;;;17.82;62.57;101307.63;4898256;28;45722;-83
2021/06/25 04:26:29;;;;;;;;;30.75;28.00;;;;;17.74;62.59;101288.94;4897576;28;47736;-84
2021/06/25 04:28:55;;;;;;;;;28.50;27.25;;;;;17.82;62.75;101299.69;4898271;29;45951;-82
2021/06/25 04:31:20;;;;;;;;;27.00;26.00;;;;;17.89;62.96;101314.06;4898386;28;46124;-83
2021/06/25 04:33:45;;;;;;;;;30.25;26.25;;;;;17.83;62.62;101296.06;4919639;28;45786;-83
2021/06/25 04:36:11;;;;;;;;;25.25;24.50;;;;;17.87;63.12;101308.06;4919160;28;45568;-83
2021/06/25 04:38:36;;;;;;;;;28.00;27.00;;;;;17.86;63.14;101304.59;4919481;28;45722;-82
2021/06/25 04:41:03;;;;;;;;;30.00;27.50;;;;;17.80;62.97;101297.19;4902034;28;45954;-81
2021/06/25 04:43:29;;;;;;;;;28.25;26.50;;;;;17.92;62.78;101316.47;4919209;28;45603;-82
2021/06/25 04:45:55;;;;;;;;;30.50;28.50;;;;;17.99;62.72;101320.22;4919036;28;45661;-80
2021/06/25 04:51:42;;;;;;;;;28.50;26.00;;;;;17.88;63.10;101288.53;4920692;28;45706;-80
2021/06/25 04:54:07;;;;;;;;;29.75;26.00;;;;;17.92;62.59;101289.94;4921437;28;45662;-81
2021/06/25 04:56:32;;;;;;;;;31.00;26.75;;;;;18.06;62.83;101312.53;4919917;28;45697;-81
2021/06/25 04:58:58;;;;;;;;;26.50;24.75;;;;;17.96;63.07;101302.78;4919803;28;46361;-82
2021/06/25 05:01:23;;;;;;;;;26.00;24.00;;;;;17.96;62.50;101299.28;4919312;28;45737;-79
2021/06/25 05:03:48;;;;;;;;;28.75;27.75;;;;;17.98;63.22;101289.34;4902951;28;45828;-83
2021/06/25 05:06:14;;;;;;;;;29.50;26.00;;;;;18.06;62.93;101313.38;4925647;28;45586;-83
2021/06/25 05:08:39;;;;;;;;;29.25;26.75;;;;;18.01;62.86;101302.34;4925983;28;45612;-84
2021/06/25 05:11:05;;;;;;;;;30.50;28.25;;;;;18.04;62.99;101302.91;4927290;28;45571;-83
2021/06/25 05:13:30;;;;;;;;;28.50;26.75;;;;;18.04;62.68;101302.06;4926568;28;45767;-83
2021/06/25 05:15:56;;;;;;;;;42.00;34.25;;;;;18.13;62.34;101316.31;4926177;28;45591;-81
2021/06/25 05:22:23;;;;;;;;;23.75;23.25;;;;;18.14;62.75;101318.81;4921543;28;45790;-82
2021/06/25 05:24:49;;;;;;;;;29.75;27.25;;;;;17.99;62.36;101291.03;4920105;28;45547;-82
2021/06/25 05:27:14;;;;;;;;;30.75;29.25;;;;;17.88;62.20;101272.63;4920061;28;46421;-81
2021/06/25 05:29:39;;;;;;;;;28.00;26.00;;;;;17.92;62.56;101280.16;4919372;28;45650;-83
2021/06/25 05:32:05;;;;;;;;;27.25;26.00;;;;;18.17;62.59;101320.34;4919505;28;45664;-82
2021/06/25 05:34:31;;;;;;;;;27.00;25.50;;;;;18.06;62.59;101300.13;4919078;28;45817;-84
2021/06/25 05:36:56;;;;;;;;;26.75;25.00;;;;;18.10;62.17;101306.81;4918593;28;46259;-83
2021/06/25 05:39:22;;;;;;;;;25.50;24.50;;;;;18.17;62.29;101321.19;4901171;28;46167;-83
2021/06/25 05:41:48;;;;;;;;;21.75;20.50;;;;;18.12;62.25;101306.69;4918403;28;45802;-82
2021/06/25 05:44:13;;;;;;;;;25.75;25.75;;;;;18.02;62.44;101285.47;4918891;28;45638;-82
2021/06/25 05:46:39;;;;;;;;;21.00;20.00;;;;;18.20;62.00;101306.78;4918406;28;46188;-81
2021/06/25 05:49:05;;;;;;;;;48.00;40.25;;;;;18.13;62.43;101301.25;4918769;28;45717;-81
2021/06/25 05:51:30;;;;;;;;;29.50;25.25;;;;;18.15;62.36;101301.91;4919357;28;45735;-83
2021/06/25 05:53:55;;;;;;;;;29.25;26.00;;;;;18.23;61.94;101319.78;4919659;28;45583;-81
2021/06/25 05:56:21;;;;;;;;;25.00;23.00;;;;;18.20;61.94;101318.25;4918605;28;45655;-82
2021/06/25 05:58:47;;;;;;;;;28.25;23.50;;;;;18.18;62.02;101312.25;4918158;28;45689;-83
2021/06/25 06:01:12;;;;;;;;;24.75;24.00;;;;;18.15;62.29;101306.38;4918422;28;45696;-82
2021/06/25 06:07:01;;;;;;;;;26.00;24.25;;;;;18.25;62.21;101323.13;4917606;28;45992;-82
2021/06/25 06:09:26;;;;;;;;;25.50;24.75;;;;;18.26;62.00;101324.81;4917828;28;46612;-81
2021/06/25 06:11:52;;;;;;;;;27.75;24.25;;;;;18.25;62.19;101318.66;4918144;28;45646;-81
2021/06/25 06:14:17;;;;;;;;;25.00;24.75;;;;;18.25;62.13;101308.03;4918028;28;45766;-80
2021/06/25 06:16:42;;;;;;;;;26.00;23.50;;;;;18.31;62.00;101320.75;4917760;28;45678;-80
2021/06/25 06:19:08;;;;;;;;;25.50;24.00;;;;;18.27;61.67;101313.22;4917390;28;46316;-80
2021/06/25 06:32:39;;;;;;;;;26.50;23.50;;;;;18.39;61.71;101310.28;4916952;28;45616;-80
2021/06/25 06:35:05;;;;;;;;;24.00;23.00;;;;;18.41;61.47;101307.47;4917343;28;45858;-80
2021/06/25 06:37:31;;;;;;;;;25.50;24.00;;;;;18.39;61.53;101302.31;4917496;28;46295;-80
2021/06/25 06:39:56;;;;;;;;;25.50;23.00;;;;;18.46;61.36;101313.22;4917544;28;46562;-79
2021/06/25 06:42:21;;;;;;;;;24.75;22.75;;;;;18.42;61.46;101293.22;4917169;28;45821;-81
2021/06/25 06:44:47;;;;;;;;;24.75;23.00;;;;;18.50;61.67;101297.84;4917214;28;45917;-81
2021/06/25 06:47:14;;;;;;;;;24.75;24.00;;;;;18.55;61.85;101300.91;4916880;28;47259;-82
2021/06/25 06:49:39;;;;;;;;;26.25;24.75;;;;;18.57;61.64;101307.75;4899589;28;46564;-79
2021/06/25 06:52:06;;;;;;;;;30.25;23.75;;;;;18.60;61.46;101303.97;4899957;28;46138;-79
2021/06/25 06:54:32;;;;;;;;;24.50;23.00;;;;;18.64;61.77;101302.69;4899724;28;45559;-81
2021/06/25 06:56:59;;;;;;;;;26.00;24.00;;;;;18.66;61.28;101311.38;4916457;28;47556;-80
2021/06/25 06:59:24;;;;;;;;;26.00;25.50;;;;;18.64;61.82;101300.03;4899479;28;46816;-80
2021/06/25 07:01:51;;;;;;;;;24.75;24.50;;;;;18.62;61.47;101302.03;4916992;28;45634;-81
2021/06/25 07:07:38;;;;;;;;;22.75;22.50;;;;;18.67;61.07;101294.47;4916554;28;46127;-80
2021/06/25 07:10:06;;;;;;;;;26.00;26.00;;;;;18.77;61.47;101309.38;4916675;28;45642;-80
2021/06/25 07:12:32;;;;;;;;;27.25;23.00;;;;;18.80;61.24;101321.53;4916744;28;45687;-81
2021/06/25 07:14:57;;;;;;;;;23.50;22.75;;;;;18.82;61.15;101316.91;4915268;28;45724;-79
2021/06/25 07:17:22;;;;;;;;;23.75;23.00;;;;;18.75;61.50;101297.22;4917140;28;45577;-81
2021/06/25 07:19:49;;;;;;;;;24.25;22.25;;;;;18.86;61.33;101305.84;4917184;28;46177;-80
2021/06/25 07:22:14;;;;;;;;;24.25;21.75;;;;;18.76;60.91;101286.47;4917419;28;45738;-81
2021/06/25 07:24:40;;;;;;;;;21.25;20.50;;;;;18.89;61.16;101307.41;4917171;28;45677;-81
2021/06/25 07:27:06;;;;;;;;;26.25;24.50;;;;;18.95;60.85;101304.13;4916795;28;45550;-82
2021/06/25 07:29:32;;;;;;;;;28.50;24.00;;;;;18.82;61.26;101271.78;4900422;28;47900;-80
2021/06/25 07:31:58;;;;;;;;;21.75;19.50;;;;;19.01;60.94;101298.22;4921479;28;45443;-80
2021/06/25 07:37:45;;;;;;;;;21.00;20.50;;;;;19.09;60.48;101293.03;4922951;28;45607;-81
2021/06/25 07:40:11;;;;;;;;;23.25;21.50;;;;;19.13;60.82;101288.25;4905539;28;46839;-80
2021/06/25 07:42:37;;;;;;;;;29.00;25.75;;;;;19.13;60.68;101283.78;4923180;28;45535;-79
2021/06/25 07:45:08;;;;;;;;;22.75;18.00;;;;;19.16;60.41;101278.16;4920218;28;45526;-80
2021/06/25 07:47:38;;;;;;;;;21.25;21.25;;;;;19.25;60.40;101292.41;4916465;28;46472;-81
2021/06/25 07:50:06;;;;;;;;;19.50;18.75;;;;;19.28;60.82;101286.78;4916421;28;46211;-81
2021/06/25 07:52:32;;;;;;;;;24.75;21.75;;;;;19.30;60.25;101284.81;4915716;28;45681;-80
2021/06/25 07:54:59;;;;;;;;;26.50;21.75;;;;;19.33;60.31;101276.53;4899585;28;45596;-79
2021/06/25 07:57:25;;;;;;;;;22.75;21.50;;;;;19.41;60.70;101286.44;4898810;28;48065;-80
2021/06/25 07:59:51;;;;;;;;;21.50;21.00;;;;;19.44;60.36;101283.47;4916258;28;45761;-80
2021/06/25 08:02:17;;;;;;;;;24.25;22.75;;;;;19.42;60.59;101272.16;4916212;28;45647;-81
2021/06/25 08:04:47;;;;;;;;;22.25;20.00;;;;;19.49;59.96;101275.91;4915906;28;45451;-80
2021/06/25 08:07:13;;;;;;;;;24.00;20.50;;;;;19.42;60.03;101254.41;4915218;28;46148;-80
2021/06/25 08:09:40;;;;;;;;;27.75;23.50;;;;;19.51;60.02;101260.66;4915999;28;45694;-80
2021/06/25 08:12:08;;;;;;;;;22.50;22.50;;;;;19.58;59.51;101272.38;4915705;28;45543;-79
2021/06/25 08:14:35;;;;;;;;;19.25;18.00;;;;;19.49;59.56;101255.47;4899222;28;45687;-80
2021/06/25 08:17:00;;;;;;;;;23.00;21.75;;;;;19.49;58.95;101257.28;4915313;28;47578;-80
2021/06/25 08:19:26;;;;;;;;;23.00;21.50;;;;;19.50;58.65;101267.78;4898373;28;46244;-80
2021/06/25 08:21:51;;;;;;;;;23.25;21.50;;;;;19.51;59.12;101268.63;4898734;28;45692;-80
2021/06/25 08:24:17;;;;;;;;;27.00;25.75;;;;;19.52;59.04;101264.97;4915483;28;45868;-80
2021/06/25 08:26:42;;;;;;;;;24.75;21.75;;;;;19.49;58.82;101249.31;4915515;28;45716;-81
2021/06/25 08:29:07;;;;;;;;;23.25;21.00;;;;;19.58;58.87;101254.59;4898177;28;47927;-80
2021/06/25 08:31:33;;;;;;;;;29.50;24.00;;;;;19.66;59.03;101262.63;4898250;28;45577;-80
2021/06/25 08:33:59;;;;;;;;;25.50;23.25;;;;;19.62;58.80;101240.00;4898178;28;45721;-80
2021/06/25 08:36:25;;;;;;;;;23.50;22.25;;;;;19.77;58.78;101260.72;4915453;28;45732;-81
2021/06/25 08:38:52;;;;;;;;;24.00;22.75;;;;;19.69;58.57;101226.94;4915074;28;46327;-81
2021/06/25 08:41:17;;;;;;;;;25.00;23.75;;;;;19.87;58.75;101241.03;4915485;28;45768;-81
2021/06/25 08:43:43;;;;;;;;;19.75;19.00;;;;;19.85;58.40;101237.72;4915764;28;45528;-80
2021/06/25 08:46:09;;;;;;;;;22.00;21.50;;;;;19.93;58.88;101239.59;4897767;28;47438;-81
2021/06/25 08:48:36;;;;;;;;;22.25;20.75;;;;;19.96;58.72;101234.81;4915227;28;45896;-80
2021/06/25 08:51:02;;;;;;;;;24.00;19.50;;;;;19.93;58.69;101220.97;4915319;28;45752;-80
2021/06/25 08:53:28;;;;;;;;;25.00;21.00;;;;;19.98;58.16;101222.19;4915285;28;45579;-82
2021/06/25 08:55:53;;;;;;;;;21.00;20.00;;;;;20.15;58.07;101252.41;4897713;28;48509;-81
2021/06/25 08:58:21;;;;;;;;;22.50;19.50;;;;;20.14;57.70;101234.75;4915306;28;45698;-80
2021/06/25 09:00:47;;;;;;;;;20.50;18.50;;;;;20.22;57.99;101242.81;4916737;28;45579;-80
2021/06/25 09:03:23;;;;;;;;;20.25;20.25;;;;;20.27;57.87;101240.53;4918605;28;45540;-80
2021/06/25 09:05:48;;;;;;;;;21.00;18.50;;;;;20.31;57.39;101241.91;4918736;28;45504;-80
2021/06/25 09:08:26;;;;;;;;;19.00;17.25;;;;;20.36;57.43;101228.13;4918408;28;45550;-81
2021/06/25 09:10:56;;;;;;;;;18.50;17.00;;;;;20.34;57.18;101222.97;4918767;28;45813;-81
2021/06/25 09:13:30;;;;;;;;;23.50;20.00;;;;;20.42;56.91;101224.84;4918605;28;45649;-80
2021/06/25 09:15:56;;;;;;;;;20.25;18.50;;;;;20.48;57.54;101230.38;4918378;28;45575;-78
2021/06/25 09:18:21;;;;;;;;;18.00;17.50;;;;;20.52;57.03;101225.56;4918667;28;45640;-79
2021/06/25 09:20:52;;;;;;;;;17.50;14.25;;;;;20.53;56.27;101228.06;4918003;28;46028;-80
2021/06/25 09:23:33;;;;;;;;;17.50;16.75;;;;;20.51;56.00;101213.25;4918424;28;45693;-81
2021/06/25 09:26:06;;;;;;;;;16.25;15.00;;;;;20.51;56.02;101215.94;4917858;28;46708;-80
2021/06/25 09:28:38;;;;;;;;;18.00;15.00;;;;;20.61;56.45;101218.47;4901887;28;45973;-79
2021/06/25 09:31:25;;;;;;;;;12.50;11.75;;;;;20.65;56.77;101220.66;4918264;28;45675;-81
2021/06/25 09:33:50;;;;;;;;;15.25;14.25;;;;;20.68;56.37;101224.81;4918345;28;45599;-81
2021/06/25 09:36:38;;;;;;;;;17.75;16.00;;;;;20.55;56.23;101205.78;4918193;28;45597;-81
2021/06/25 09:39:11;;;;;;;;;15.75;14.25;;;;;20.69;56.31;101218.47;4918190;28;45440;-81
2021/06/25 09:41:47;;;;;;;;;17.00;15.00;;;;;20.74;56.43;101227.66;4918442;28;45759;-83
2021/06/25 09:44:18;;;;;;;;;15.00;14.50;;;;;20.76;56.48;101208.88;4918575;28;45528;-81
2021/06/25 09:46:48;;;;;;;;;17.00;15.50;;;;;20.81;56.70;101204.72;4918191;28;46446;-80
2021/06/25 09:49:16;;;;;;;;;15.75;12.50;;;;;20.86;56.65;101202.41;4918132;28;46027;-81
2021/06/25 09:51:57;;;;;;;;;16.50;15.50;;;;;20.89;56.60;101198.63;4918282;28;45702;-81
2021/06/25 09:54:23;;;;;;;;;15.50;14.00;;;;;20.92;56.72;101199.13;4918700;28;45476;-80
2021/06/25 10:02:18;;;;;;;;;13.75;13.00;;;;;21.15;56.71;101214.53;4919682;28;45629;-81
2021/06/25 10:04:45;;;;;;;;;12.50;12.25;;;;;21.19;54.13;101202.56;4920752;28;45606;-81
2021/06/25 10:07:13;;;;;;;;;11.50;11.00;;;;;21.22;55.33;101204.88;4921766;28;45859;-80
2021/06/25 10:09:39;;;;;;;;;14.50;13.50;;;;;21.16;56.16;101186.91;4922219;28;46041;-78
2021/06/25 10:12:08;;;;;;;;;12.00;12.00;;;;;21.28;55.81;101197.06;4922475;28;45602;-80
2021/06/25 10:14:34;;;;;;;;;13.75;11.50;;;;;21.37;55.91;101197.09;4924710;28;45468;-78
2021/06/25 10:17:00;;;;;;;;;13.25;12.00;;;;;21.44;56.21;101198.91;4922845;28;47604;-81
2021/06/25 10:19:27;;;;;;;;;11.25;10.75;;;;;21.45;55.54;101187.25;4919910;28;46046;-81
2021/06/25 10:21:56;;;;;;;;;10.25;9.75;;;;;21.51;55.52;101178.59;4917738;28;45724;-80
2021/06/25 10:24:22;;;;;;;;;11.25;10.00;;;;;21.63;55.99;101177.28;4918081;28;45786;-81
2021/06/25 10:26:48;;;;;;;;;10.75;10.25;;;;;21.75;56.31;101188.47;4917264;28;45614;-81
2021/06/25 10:29:14;;;;;;;;;11.75;11.00;;;;;21.82;56.26;101180.59;4917805;28;45838;-81
2021/06/25 10:31:40;;;;;;;;;10.00;10.00;;;;;21.89;56.25;101176.25;4917183;28;45656;-81
2021/06/25 10:34:07;;;;;;;;;12.25;11.25;;;;;21.95;55.98;101173.78;4917309;28;45611;-80
2021/06/25 10:36:36;;;;;;;;;13.00;12.00;;;;;21.90;55.57;101154.75;4917279;28;45547;-81
2021/06/25 10:39:10;;;;;;;;;10.25;10.25;;;;;22.04;55.92;101166.59;4917131;28;45841;-82
2021/06/25 10:41:50;;;;;;;;;11.50;10.75;;;;;22.08;55.31;101181.25;4917110;28;45691;-80
2021/06/25 10:44:35;;;;;;;;;7.50;7.50;;;;;22.08;54.91;101187.44;4917193;28;45675;-80
2021/06/25 10:47:16;;;;;;;;;6.00;6.00;;;;;22.08;53.45;101182.09;4917117;28;45742;-81
2021/06/25 10:49:59;;;;;;;;;7.50;6.25;;;;;22.08;54.05;101181.25;4917109;28;45522;-81
2021/06/25 10:52:26;;;;;;;;;7.25;7.25;;;;;22.09;52.92;101177.59;4917236;28;45893;-80
2021/06/25 10:55:01;;;;;;;;;7.00;6.75;;;;;22.11;54.18;101172.94;4917388;28;45501;-81
2021/06/25 10:57:28;;;;;;;;;5.00;5.00;;;;;22.16;54.72;101168.75;4917047;28;45651;-80
2021/06/25 10:59:53;;;;;;;;;7.00;7.00;;;;;22.14;54.17;101149.38;4917472;28;46244;-82
2021/06/25 11:02:19;;;;;;;;;6.00;6.00;;;;;22.26;55.01;101160.53;4917004;28;45527;-81
2021/06/25 11:04:47;;;;;;;;;5.00;5.00;;;;;22.31;54.88;101160.84;4917139;28;45529;-80
2021/06/25 11:07:19;;;;;;;;;6.00;5.00;;;;;22.34;54.35;101160.53;4916853;28;46493;-81
2021/06/25 11:10:08;;;;;;;;;6.75;6.75;;;;;22.37;54.91;101165.50;4917057;28;45954;-79
2021/06/25 11:12:33;;;;;;;;;6.25;6.00;;;;;22.39;54.70;101170.69;4917059;28;45742;-82
2021/06/25 11:15:04;;;;;;;;;7.00;6.25;;;;;22.40;54.84;101175.84;4916846;28;45631;-81
2021/06/25 11:17:53;;;;;;;;;8.25;6.75;;;;;22.43;55.36;101180.00;4916908;28;46478;-81
2021/06/25 11:20:26;;;;;;;;;8.50;6.75;;;;;22.44;53.77;101179.00;4917008;28;45877;-81
2021/06/25 11:23:01;;;;;;;;;6.00;6.00;;;;;22.42;55.22;101181.00;4916024;28;45766;-83
2021/06/25 11:25:44;;;;;;;;;7.00;5.25;;;;;22.39;55.62;101174.19;4917006;28;45847;-81
2021/06/25 11:28:22;;;;;;;;;8.00;8.00;;;;;22.38;55.93;101172.53;4916596;28;45556;-81
2021/06/25 11:30:51;;;;;;;;;8.00;7.00;;;;;22.36;55.35;101176.34;4916701;28;46586;-80
2021/06/25 11:36:48;;;;;;;;;7.50;7.00;;;;;22.32;56.40;101181.22;4916355;28;45895;-79
2021/06/25 11:39:32;;;;;;;;;7.25;7.00;;;;;22.27;57.02;101182.72;4916278;28;45655;-80
2021/06/25 11:42:08;;;;;;;;;9.25;9.25;;;;;22.18;57.18;101174.75;4916337;28;45858;-82
2021/06/25 11:44:38;;;;;;;;;10.00;9.00;;;;;22.09;58.64;101174.91;4916081;28;45655;-81
2021/06/25 11:47:16;;;;;;;;;9.00;8.00;;;;;21.99;58.69;101171.59;4916263;28;45639;-80
2021/06/25 11:53:04;;;;;;;;;8.75;8.00;;;;;21.89;59.21;101170.91;4916046;28;45871;-82